www.cux-wetter.de
Wetterdaten: Woche 26.10.15 - 01.11.15 (KW44)
Datum Zeit Temp. A. Feuchte A. Luftdruck Regen Wind Richtung Sonnenschein Solar Taupunkt Windchill Windben
26.10.2015 00:00 5,6 C 96 % 1025,4 hPa 0,0 l/m 0,8 km/h (0 Bft) W-SW 0,00 h 0 W/m 5,0 C 5,6 C 1,9 km/h (1 Bft)
26.10.2015 01:00 5,4 C 97 % 1025,4 hPa 0,0 l/m 0,2 km/h (0 Bft) W-SW 0,00 h 0 W/m 4,9 C 5,4 C 1,0 km/h (0 Bft)
26.10.2015 02:00 5,1 C 97 % 1025,1 hPa 0,0 l/m 0,8 km/h (0 Bft) S-SO 0,00 h 0 W/m 4,6 C 5,1 C 2,4 km/h (1 Bft)
26.10.2015 03:00 4,7 C 97 % 1024,8 hPa 0,0 l/m 1,1 km/h (1 Bft) SO 0,00 h 0 W/m 4,2 C 4,7 C 3,2 km/h (1 Bft)
26.10.2015 04:00 4,5 C 97 % 1024,2 hPa 0,0 l/m 1,9 km/h (1 Bft) SO 0,00 h 0 W/m 4,0 C 4,5 C 3,8 km/h (1 Bft)
26.10.2015 05:00 4,7 C 97 % 1024,2 hPa 0,0 l/m 2,8 km/h (1 Bft) SO 0,00 h 0 W/m 4,2 C 4,7 C 5,5 km/h (2 Bft)
26.10.2015 06:00 4,5 C 97 % 1024,1 hPa 0,0 l/m 3,7 km/h (1 Bft) SO 0,00 h 0 W/m 4,1 C 4,5 C 6,5 km/h (2 Bft)
26.10.2015 07:00 4,5 C 97 % 1024,1 hPa 0,0 l/m 1,9 km/h (1 Bft) O-SO 0,00 h 12 W/m 4,1 C 4,5 C 4,5 km/h (1 Bft)
26.10.2015 08:00 5,3 C 97 % 1024,0 hPa 0,0 l/m 1,6 km/h (1 Bft) O-SO 0,20 h 22 W/m 4,9 C 5,3 C 4,5 km/h (1 Bft)
26.10.2015 09:00 7,7 C 95 % 1023,8 hPa 0,0 l/m 6,0 km/h (2 Bft) S-SO 0,00 h 37 W/m 6,9 C 7,3 C 13,3 km/h (3 Bft)
26.10.2015 10:00 10,0 C 85 % 1023,8 hPa 0,0 l/m 8,6 km/h (2 Bft) SO 0,60 h 162 W/m 7,6 C 8,5 C 16,8 km/h (3 Bft)
26.10.2015 11:00 11,6 C 79 % 1023,5 hPa 0,2 l/m 8,4 km/h (2 Bft) SO 1,00 h 229 W/m 8,1 C 10,3 C 16,8 km/h (3 Bft)
26.10.2015 12:00 12,5 C 77 % 1022,9 hPa 0,0 l/m 7,9 km/h (2 Bft) SO 0,90 h 272 W/m 8,6 C 11,6 C 16,4 km/h (3 Bft)
26.10.2015 13:00 13,1 C 75 % 1022,3 hPa 0,0 l/m 8,0 km/h (2 Bft) S-SO 0,85 h 246 W/m 8,6 C 12,0 C 17,3 km/h (3 Bft)
26.10.2015 14:00 13,6 C 73 % 1021,8 hPa 0,0 l/m 7,6 km/h (2 Bft) SO 0,80 h 226 W/m 8,8 C 12,7 C 15,6 km/h (3 Bft)
26.10.2015 15:00 12,7 C 78 % 1021,6 hPa 0,0 l/m 5,1 km/h (1 Bft) NO 0,00 h 105 W/m 9,0 C 12,6 C 13,1 km/h (3 Bft)
26.10.2015 16:00 11,6 C 83 % 1021,5 hPa 0,0 l/m 3,8 km/h (1 Bft) O 0,00 h 23 W/m 8,8 C 11,6 C 9,6 km/h (2 Bft)
26.10.2015 17:00 10,5 C 86 % 1021,5 hPa 0,0 l/m 3,8 km/h (1 Bft) O-SO 0,00 h 0 W/m 8,4 C 10,5 C 9,6 km/h (2 Bft)
26.10.2015 18:00 10,2 C 87 % 1021,4 hPa 0,0 l/m 4,4 km/h (1 Bft) SO 0,00 h 0 W/m 8,0 C 10,2 C 11,5 km/h (2 Bft)
26.10.2015 19:00 9,5 C 87 % 1021,3 hPa 0,0 l/m 3,8 km/h (1 Bft) O-SO 0,00 h 0 W/m 7,5 C 9,5 C 10,4 km/h (2 Bft)
26.10.2015 20:00 8,7 C 90 % 1021,3 hPa 0,0 l/m 3,6 km/h (1 Bft) SO 0,00 h 0 W/m 7,1 C 8,7 C 9,0 km/h (2 Bft)
26.10.2015 21:00 8,2 C 91 % 1021,2 hPa 0,0 l/m 3,1 km/h (1 Bft) O-SO 0,00 h 0 W/m 6,9 C 8,2 C 7,9 km/h (2 Bft)
26.10.2015 22:00 8,0 C 92 % 1021,1 hPa 0,0 l/m 3,7 km/h (1 Bft) SO 0,00 h 0 W/m 6,8 C 8,0 C 9,7 km/h (2 Bft)
26.10.2015 23:00 7,8 C 92 % 1020,8 hPa 0,0 l/m 4,1 km/h (1 Bft) O 0,00 h 0 W/m 6,6 C 7,8 C 10,6 km/h (2 Bft)
27.10.2015 00:00 7,5 C 93 % 1020,6 hPa 0,0 l/m 4,4 km/h (1 Bft) SO 0,00 h 0 W/m 6,4 C 7,5 C 11,2 km/h (2 Bft)
27.10.2015 01:00 6,9 C 94 % 1020,3 hPa 0,0 l/m 3,6 km/h (1 Bft) SO 0,00 h 0 W/m 6,0 C 6,9 C 10,0 km/h (2 Bft)
27.10.2015 02:00 6,8 C 94 % 1019,8 hPa 0,0 l/m 3,4 km/h (1 Bft) SO 0,00 h 0 W/m 6,0 C 6,8 C 8,2 km/h (2 Bft)
27.10.2015 03:00 6,5 C 95 % 1019,3 hPa 0,0 l/m 3,0 km/h (1 Bft) O-SO 0,00 h 0 W/m 5,8 C 6,5 C 8,0 km/h (2 Bft)
27.10.2015 04:00 6,6 C 95 % 1019,1 hPa 0,0 l/m 3,8 km/h (1 Bft) O-SO 0,00 h 0 W/m 5,9 C 6,6 C 10,0 km/h (2 Bft)
27.10.2015 05:00 6,2 C 95 % 1018,8 hPa 0,0 l/m 5,2 km/h (1 Bft) SO 0,00 h 0 W/m 5,4 C 6,2 C 12,7 km/h (3 Bft)
27.10.2015 06:00 5,7 C 95 % 1018,3 hPa 0,0 l/m 4,1 km/h (1 Bft) SO 0,00 h 0 W/m 5,0 C 5,7 C 10,5 km/h (2 Bft)
27.10.2015 07:00 5,7 C 95 % 1018,4 hPa 0,0 l/m 4,7 km/h (1 Bft) SO 0,00 h 13 W/m 5,0 C 5,7 C 12,0 km/h (2 Bft)
27.10.2015 08:00 6,3 C 95 % 1018,5 hPa 0,0 l/m 3,5 km/h (1 Bft) SO 0,35 h 45 W/m 5,6 C 6,3 C 8,6 km/h (2 Bft)
27.10.2015 09:00 7,3 C 93 % 1018,4 hPa 0,0 l/m 4,8 km/h (1 Bft) O-SO 0,35 h 60 W/m 6,2 C 7,3 C 11,9 km/h (2 Bft)
27.10.2015 10:00 8,7 C 90 % 1018,1 hPa 0,0 l/m 5,0 km/h (1 Bft) O 0,60 h 157 W/m 7,2 C 8,6 C 12,3 km/h (2 Bft)
27.10.2015 11:00 10,9 C 84 % 1017,8 hPa 0,0 l/m 5,8 km/h (2 Bft) SO 1,00 h 262 W/m 8,4 C 10,8 C 13,9 km/h (3 Bft)
27.10.2015 12:00 12,2 C 81 % 1017,4 hPa 0,0 l/m 5,3 km/h (1 Bft) O 1,00 h 307 W/m 9,2 C 12,1 C 13,3 km/h (3 Bft)
27.10.2015 13:00 12,5 C 81 % 1017,0 hPa 0,0 l/m 5,9 km/h (2 Bft) O-SO 1,00 h 278 W/m 9,2 C 12,3 C 14,4 km/h (3 Bft)
27.10.2015 14:00 12,8 C 80 % 1016,6 hPa 0,0 l/m 5,7 km/h (2 Bft) O-NO 0,50 h 190 W/m 9,5 C 12,6 C 14,7 km/h (3 Bft)
27.10.2015 15:00 12,6 C 82 % 1016,1 hPa 0,0 l/m 4,9 km/h (1 Bft) O 0,00 h 111 W/m 9,6 C 12,5 C 13,0 km/h (3 Bft)
27.10.2015 16:00 11,6 C 85 % 1016,1 hPa 0,0 l/m 3,8 km/h (1 Bft) O 0,00 h 24 W/m 9,1 C 11,6 C 9,7 km/h (2 Bft)
27.10.2015 17:00 10,1 C 90 % 1016,1 hPa 0,0 l/m 2,8 km/h (1 Bft) SO 0,00 h 0 W/m 8,4 C 10,1 C 7,2 km/h (2 Bft)
27.10.2015 18:00 9,6 C 90 % 1016,2 hPa 0,0 l/m 4,1 km/h (1 Bft) S-SO 0,00 h 0 W/m 8,0 C 9,6 C 9,9 km/h (2 Bft)
27.10.2015 19:00 9,2 C 90 % 1016,0 hPa 0,0 l/m 4,0 km/h (1 Bft) SO 0,00 h 0 W/m 7,7 C 9,2 C 9,9 km/h (2 Bft)
27.10.2015 20:00 8,9 C 91 % 1015,9 hPa 0,0 l/m 3,5 km/h (1 Bft) SO 0,00 h 0 W/m 7,5 C 8,9 C 9,3 km/h (2 Bft)
27.10.2015 21:00 8,8 C 92 % 1015,7 hPa 0,0 l/m 5,5 km/h (2 Bft) SO 0,00 h 0 W/m 7,6 C 8,8 C 13,7 km/h (3 Bft)
27.10.2015 22:00 8,8 C 93 % 1015,6 hPa 0,0 l/m 4,8 km/h (1 Bft) SO 0,00 h 0 W/m 7,6 C 8,8 C 12,1 km/h (2 Bft)
27.10.2015 23:00 8,6 C 94 % 1015,2 hPa 0,0 l/m 4,1 km/h (1 Bft) S-SO 0,00 h 0 W/m 7,6 C 8,6 C 10,9 km/h (2 Bft)
28.10.2015 00:00 8,2 C 95 % 1015,2 hPa 0,0 l/m 4,1 km/h (1 Bft) O-SO 0,00 h 0 W/m 7,5 C 8,2 C 10,6 km/h (2 Bft)
28.10.2015 01:00 8,1 C 96 % 1015,0 hPa 0,0 l/m 4,5 km/h (1 Bft) O-SO 0,00 h 0 W/m 7,5 C 8,1 C 12,7 km/h (3 Bft)
28.10.2015 02:00 8,0 C 96 % 1014,4 hPa 0,0 l/m 5,5 km/h (2 Bft) SO 0,00 h 0 W/m 7,4 C 7,7 C 14,1 km/h (3 Bft)
28.10.2015 03:00 7,8 C 96 % 1013,9 hPa 0,0 l/m 5,7 km/h (2 Bft) O-NO 0,00 h 0 W/m 7,1 C 7,7 C 14,6 km/h (3 Bft)
28.10.2015 04:00 7,5 C 96 % 1013,5 hPa 0,0 l/m 5,7 km/h (2 Bft) O-NO 0,00 h 0 W/m 6,9 C 7,2 C 13,9 km/h (3 Bft)
28.10.2015 05:00 7,4 C 96 % 1013,3 hPa 0,0 l/m 5,9 km/h (2 Bft) O-NO 0,00 h 0 W/m 6,8 C 7,2 C 14,6 km/h (3 Bft)
28.10.2015 06:00 7,2 C 96 % 1013,2 hPa 0,0 l/m 6,7 km/h (2 Bft) O 0,00 h 0 W/m 6,7 C 6,6 C 17,0 km/h (3 Bft)
28.10.2015 07:00 7,3 C 95 % 1013,3 hPa 0,0 l/m 7,5 km/h (2 Bft) SO 0,00 h 12 W/m 6,6 C 6,4 C 18,8 km/h (3 Bft)
28.10.2015 08:00 7,4 C 95 % 1013,3 hPa 0,0 l/m 7,4 km/h (2 Bft) SO 0,35 h 44 W/m 6,7 C 6,4 C 17,7 km/h (3 Bft)
28.10.2015 09:00 7,9 C 94 % 1013,2 hPa 0,0 l/m 6,6 km/h (2 Bft) O-SO 0,85 h 84 W/m 7,0 C 7,4 C 16,2 km/h (3 Bft)
28.10.2015 10:00 8,8 C 91 % 1012,8 hPa 0,0 l/m 7,4 km/h (2 Bft) O-SO 0,70 h 162 W/m 7,5 C 7,9 C 18,1 km/h (3 Bft)
28.10.2015 11:00 9,8 C 88 % 1012,7 hPa 0,0 l/m 7,6 km/h (2 Bft) SO 0,45 h 174 W/m 7,9 C 8,9 C 17,0 km/h (3 Bft)
28.10.2015 12:00 9,8 C 88 % 1012,3 hPa 0,0 l/m 7,5 km/h (2 Bft) SO 0,05 h 140 W/m 7,9 C 8,9 C 17,1 km/h (3 Bft)
28.10.2015 13:00 9,2 C 89 % 1012,0 hPa 0,0 l/m 8,7 km/h (2 Bft) S-SO 0,00 h 101 W/m 7,5 C 7,6 C 17,0 km/h (3 Bft)
28.10.2015 14:00 8,7 C 90 % 1011,7 hPa 0,0 l/m 9,6 km/h (2 Bft) SO 0,00 h 114 W/m 7,2 C 6,5 C 19,5 km/h (3 Bft)
28.10.2015 15:00 8,8 C 90 % 1011,5 hPa 0,0 l/m 8,0 km/h (2 Bft) SO 0,00 h 98 W/m 7,4 C 7,6 C 16,8 km/h (3 Bft)
28.10.2015 16:00 8,3 C 92 % 1011,3 hPa 0,0 l/m 6,1 km/h (2 Bft) S-SO 0,00 h 24 W/m 7,0 C 7,9 C 14,3 km/h (3 Bft)
28.10.2015 17:00 7,6 C 93 % 1011,4 hPa 0,0 l/m 5,4 km/h (1 Bft) SO 0,00 h 0 W/m 6,6 C 7,6 C 11,9 km/h (2 Bft)
28.10.2015 18:00 6,9 C 95 % 1012,0 hPa 0,0 l/m 3,1 km/h (1 Bft) SO 0,00 h 0 W/m 6,0 C 6,9 C 7,1 km/h (2 Bft)
28.10.2015 19:00 6,9 C 96 % 1011,9 hPa 0,0 l/m 4,7 km/h (1 Bft) SO 0,00 h 0 W/m 6,3 C 6,9 C 11,2 km/h (2 Bft)
28.10.2015 20:00 7,6 C 94 % 1011,9 hPa 0,0 l/m 4,5 km/h (1 Bft) SO 0,00 h 0 W/m 6,8 C 7,5 C 9,7 km/h (2 Bft)
28.10.2015 21:00 7,8 C 94 % 1012,1 hPa 0,0 l/m 2,9 km/h (1 Bft) SO 0,00 h 0 W/m 6,9 C 7,8 C 7,9 km/h (2 Bft)
28.10.2015 22:00 8,2 C 94 % 1012,3 hPa 0,0 l/m 2,4 km/h (1 Bft) SO 0,00 h 0 W/m 7,3 C 8,2 C 6,1 km/h (2 Bft)
28.10.2015 23:00 8,3 C 94 % 1012,4 hPa 0,0 l/m 2,9 km/h (1 Bft) O-SO 0,00 h 0 W/m 7,4 C 8,3 C 7,6 km/h (2 Bft)
29.10.2015 00:00 8,3 C 94 % 1012,6 hPa 0,0 l/m 2,9 km/h (1 Bft) O-SO 0,00 h 0 W/m 7,4 C 8,3 C 7,7 km/h (2 Bft)
29.10.2015 01:00 7,8 C 94 % 1012,7 hPa 0,0 l/m 3,2 km/h (1 Bft) SO 0,00 h 0 W/m 6,8 C 7,8 C 8,1 km/h (2 Bft)
29.10.2015 02:00 7,5 C 94 % 1012,7 hPa 0,0 l/m 4,0 km/h (1 Bft) S-SO 0,00 h 0 W/m 6,6 C 7,5 C 9,9 km/h (2 Bft)
29.10.2015 03:00 7,3 C 95 % 1012,9 hPa 0,0 l/m 4,1 km/h (1 Bft) SO 0,00 h 0 W/m 6,4 C 7,3 C 9,0 km/h (2 Bft)
29.10.2015 04:00 7,3 C 95 % 1012,8 hPa 0,0 l/m 3,1 km/h (1 Bft) SO 0,00 h 0 W/m 6,5 C 7,3 C 6,4 km/h (2 Bft)
29.10.2015 05:00 6,9 C 95 % 1013,3 hPa 0,0 l/m 3,7 km/h (1 Bft) SO 0,00 h 0 W/m 6,2 C 6,9 C 7,6 km/h (2 Bft)
29.10.2015 06:00 6,0 C 96 % 1013,7 hPa 0,0 l/m 2,4 km/h (1 Bft) SO 0,00 h 0 W/m 5,4 C 6,0 C 5,5 km/h (2 Bft)
29.10.2015 07:00 5,8 C 97 % 1014,4 hPa 0,0 l/m 2,7 km/h (1 Bft) SO 0,00 h 11 W/m 5,4 C 5,8 C 5,5 km/h (2 Bft)
29.10.2015 08:00 5,9 C 97 % 1015,1 hPa 0,0 l/m 3,2 km/h (1 Bft) S-SO 0,30 h 37 W/m 5,5 C 5,9 C 6,7 km/h (2 Bft)
29.10.2015 09:00 6,3 C 98 % 1015,5 hPa 0,0 l/m 3,9 km/h (1 Bft) SO 0,60 h 74 W/m 6,1 C 6,3 C 8,0 km/h (2 Bft)
29.10.2015 10:00 7,2 C 98 % 1015,9 hPa 0,0 l/m 3,3 km/h (1 Bft) SO 0,00 h 64 W/m 6,9 C 7,2 C 7,1 km/h (2 Bft)
29.10.2015 11:00 8,5 C 96 % 1016,6 hPa 0,0 l/m 3,9 km/h (1 Bft) S 0,15 h 118 W/m 8,0 C 8,5 C 7,3 km/h (2 Bft)
29.10.2015 12:00 10,4 C 94 % 1017,1 hPa 0,0 l/m 3,4 km/h (1 Bft) S-SW 0,00 h 100 W/m 9,4 C 10,4 C 6,1 km/h (2 Bft)
29.10.2015 13:00 11,3 C 94 % 1017,3 hPa 0,0 l/m 2,5 km/h (1 Bft) S 0,00 h 91 W/m 10,4 C 11,3 C 5,3 km/h (1 Bft)
29.10.2015 14:00 11,5 C 93 % 1017,6 hPa 0,0 l/m 2,7 km/h (1 Bft) SW 0,00 h 52 W/m 10,5 C 11,5 C 5,0 km/h (1 Bft)
29.10.2015 15:00 11,6 C 94 % 1018,1 hPa 0,0 l/m 3,3 km/h (1 Bft) S-SW 0,00 h 33 W/m 10,7 C 11,6 C 5,6 km/h (2 Bft)
29.10.2015 16:00 11,5 C 95 % 1018,8 hPa 0,0 l/m 1,9 km/h (1 Bft) S-SW 0,00 h 15 W/m 10,7 C 11,5 C 3,8 km/h (1 Bft)
29.10.2015 17:00 11,3 C 95 % 1019,5 hPa 0,0 l/m 0,5 km/h (0 Bft) N 0,00 h 0 W/m 10,6 C 11,3 C 1,7 km/h (1 Bft)
29.10.2015 18:00 11,2 C 96 % 1020,2 hPa 0,0 l/m 1,1 km/h (0 Bft) S-SW 0,00 h 0 W/m 10,6 C 11,2 C 2,6 km/h (1 Bft)
29.10.2015 19:00 10,9 C 96 % 1020,7 hPa 0,0 l/m 0,6 km/h (0 Bft) S 0,00 h 0 W/m 10,3 C 10,9 C 1,8 km/h (1 Bft)
29.10.2015 20:00 9,7 C 96 % 1021,3 hPa 0,0 l/m 0,4 km/h (0 Bft) S 0,00 h 0 W/m 9,2 C 9,7 C 1,4 km/h (1 Bft)
29.10.2015 21:00 9,3 C 97 % 1022,1 hPa 0,0 l/m 0,6 km/h (0 Bft) S 0,00 h 0 W/m 8,9 C 9,3 C 1,8 km/h (1 Bft)
29.10.2015 22:00 9,4 C 98 % 1022,5 hPa 0,0 l/m 0,8 km/h (0 Bft) S 0,00 h 0 W/m 9,1 C 9,4 C 2,1 km/h (1 Bft)
29.10.2015 23:00 9,6 C 98 % 1022,6 hPa 0,0 l/m 1,0 km/h (0 Bft) S-SO 0,00 h 0 W/m 9,3 C 9,6 C 2,8 km/h (1 Bft)
30.10.2015 00:00 10,1 C 98 % 1023,1 hPa 0,0 l/m 1,5 km/h (1 Bft) S-SO 0,00 h 0 W/m 9,8 C 10,1 C 3,2 km/h (1 Bft)
30.10.2015 01:00 9,6 C 98 % 1023,5 hPa 0,0 l/m 2,2 km/h (1 Bft) SO 0,00 h 0 W/m 9,3 C 9,6 C 4,7 km/h (1 Bft)
30.10.2015 02:00 8,9 C 98 % 1023,7 hPa 0,0 l/m 1,8 km/h (1 Bft) SO 0,00 h 0 W/m 8,6 C 8,9 C 3,9 km/h (1 Bft)
30.10.2015 03:00 8,3 C 98 % 1023,9 hPa 0,0 l/m 1,5 km/h (1 Bft) O-SO 0,00 h 0 W/m 8,0 C 8,3 C 3,8 km/h (1 Bft)
30.10.2015 04:00 9,1 C 99 % 1024,2 hPa 0,0 l/m 1,3 km/h (1 Bft) O-SO 0,00 h 0 W/m 8,9 C 9,1 C 3,6 km/h (1 Bft)
30.10.2015 05:00 9,8 C 99 % 1024,7 hPa 0,0 l/m 2,6 km/h (1 Bft) SO 0,00 h 0 W/m 9,7 C 9,8 C 5,4 km/h (1 Bft)
30.10.2015 06:00 9,9 C 99 % 1025,2 hPa 0,0 l/m 1,7 km/h (1 Bft) O 0,00 h 0 W/m 9,8 C 9,9 C 3,6 km/h (1 Bft)
30.10.2015 07:00 10,1 C 99 % 1025,8 hPa 0,0 l/m 1,9 km/h (1 Bft) O-SO 0,00 h 10 W/m 9,9 C 10,1 C 4,5 km/h (1 Bft)
30.10.2015 08:00 9,8 C 99 % 1026,3 hPa 0,0 l/m 2,8 km/h (1 Bft) SO 0,00 h 38 W/m 9,7 C 9,8 C 5,3 km/h (1 Bft)
30.10.2015 09:00 10,6 C 99 % 1026,4 hPa 0,0 l/m 4,3 km/h (1 Bft) SO 0,00 h 74 W/m 10,4 C 10,6 C 9,6 km/h (2 Bft)
30.10.2015 10:00 11,4 C 97 % 1026,6 hPa 0,0 l/m 5,4 km/h (1 Bft) SO 0,30 h 131 W/m 11,0 C 11,3 C 12,3 km/h (2 Bft)
30.10.2015 11:00 13,4 C 92 % 1027,2 hPa 0,0 l/m 5,5 km/h (2 Bft) S-SO 0,85 h 216 W/m 12,1 C 13,3 C 11,9 km/h (2 Bft)
30.10.2015 12:00 14,5 C 84 % 1027,1 hPa 0,0 l/m 7,1 km/h (2 Bft) SO 0,85 h 254 W/m 11,9 C 13,9 C 14,0 km/h (3 Bft)
30.10.2015 13:00 15,2 C 81 % 1027,0 hPa 0,0 l/m 5,1 km/h (1 Bft) SO 1,00 h 252 W/m 11,9 C 15,2 C 11,1 km/h (2 Bft)
30.10.2015 14:00 14,8 C 81 % 1027,3 hPa 0,0 l/m 4,8 km/h (1 Bft) SO 0,15 h 117 W/m 11,6 C 14,8 C 10,5 km/h (2 Bft)
30.10.2015 15:00 14,3 C 85 % 1027,6 hPa 0,0 l/m 2,9 km/h (1 Bft) SO 0,00 h 56 W/m 11,7 C 14,3 C 7,4 km/h (2 Bft)
30.10.2015 16:00 13,3 C 88 % 1027,9 hPa 0,0 l/m 2,6 km/h (1 Bft) O-SO 0,00 h 10 W/m 11,4 C 13,3 C 7,3 km/h (2 Bft)
30.10.2015 17:00 12,6 C 91 % 1028,0 hPa 0,0 l/m 3,3 km/h (1 Bft) SO 0,00 h 0 W/m 11,1 C 12,6 C 8,2 km/h (2 Bft)
30.10.2015 18:00 11,8 C 92 % 1028,1 hPa 0,0 l/m 4,0 km/h (1 Bft) O 0,00 h 0 W/m 10,5 C 11,8 C 11,0 km/h (2 Bft)
30.10.2015 19:00 11,0 C 93 % 1028,6 hPa 0,0 l/m 3,4 km/h (1 Bft) O-SO 0,00 h 0 W/m 9,9 C 11,0 C 8,6 km/h (2 Bft)
30.10.2015 20:00 10,7 C 93 % 1028,7 hPa 0,0 l/m 4,4 km/h (1 Bft) SO 0,00 h 0 W/m 9,6 C 10,7 C 11,5 km/h (2 Bft)
30.10.2015 21:00 10,4 C 92 % 1028,6 hPa 0,0 l/m 5,6 km/h (2 Bft) S-SO 0,00 h 0 W/m 9,2 C 10,3 C 12,6 km/h (2 Bft)
30.10.2015 22:00 9,8 C 93 % 1028,7 hPa 0,0 l/m 5,2 km/h (1 Bft) S-SO 0,00 h 0 W/m 8,7 C 9,8 C 12,5 km/h (2 Bft)
30.10.2015 23:00 9,1 C 94 % 1028,6 hPa 0,0 l/m 5,9 km/h (2 Bft) S-SO 0,00 h 0 W/m 8,2 C 8,8 C 14,3 km/h (3 Bft)
31.10.2015 00:00 8,5 C 95 % 1028,6 hPa 0,0 l/m 6,0 km/h (2 Bft) SO 0,00 h 0 W/m 7,7 C 8,2 C 13,9 km/h (3 Bft)
31.10.2015 01:00 8,1 C 95 % 1028,7 hPa 0,0 l/m 5,3 km/h (1 Bft) O-SO 0,00 h 0 W/m 7,3 C 8,1 C 13,6 km/h (3 Bft)
31.10.2015 02:00 7,8 C 95 % 1028,8 hPa 0,0 l/m 4,3 km/h (1 Bft) O 0,00 h 0 W/m 7,0 C 7,8 C 11,1 km/h (2 Bft)
31.10.2015 03:00 7,5 C 95 % 1028,5 hPa 0,0 l/m 6,6 km/h (2 Bft) O-SO 0,00 h 0 W/m 6,8 C 7,0 C 16,2 km/h (3 Bft)
31.10.2015 04:00 7,3 C 95 % 1028,5 hPa 0,0 l/m 7,2 km/h (2 Bft) O-SO 0,00 h 0 W/m 6,6 C 6,6 C 16,5 km/h (3 Bft)
31.10.2015 05:00 7,2 C 95 % 1028,4 hPa 0,0 l/m 7,4 km/h (2 Bft) SO 0,00 h 0 W/m 6,5 C 6,2 C 16,5 km/h (3 Bft)
31.10.2015 06:00 7,2 C 96 % 1028,3 hPa 0,0 l/m 6,6 km/h (2 Bft) S-SO 0,00 h 0 W/m 6,6 C 6,5 C 15,6 km/h (3 Bft)
31.10.2015 07:00 7,1 C 96 % 1028,7 hPa 0,0 l/m 6,9 km/h (2 Bft) O-SO 0,00 h 6 W/m 6,5 C 6,5 C 16,7 km/h (3 Bft)
31.10.2015 08:00 7,4 C 96 % 1028,9 hPa 0,0 l/m 7,4 km/h (2 Bft) SO 0,00 h 21 W/m 6,7 C 6,4 C 17,7 km/h (3 Bft)
31.10.2015 09:00 7,9 C 94 % 1028,8 hPa 0,0 l/m 7,6 km/h (2 Bft) O-SO 0,00 h 49 W/m 7,0 C 6,8 C 17,1 km/h (3 Bft)
31.10.2015 10:00 8,7 C 92 % 1028,5 hPa 0,0 l/m 9,3 km/h (2 Bft) SO 0,00 h 80 W/m 7,5 C 6,7 C 19,6 km/h (3 Bft)
31.10.2015 11:00 9,4 C 90 % 1028,4 hPa 0,0 l/m 10,4 km/h (2 Bft) S-SO 0,00 h 113 W/m 7,8 C 6,7 C 19,8 km/h (3 Bft)
31.10.2015 12:00 10,2 C 88 % 1027,8 hPa 0,0 l/m 7,5 km/h (2 Bft) SO 0,55 h 212 W/m 8,3 C 9,3 C 16,7 km/h (3 Bft)
31.10.2015 13:00 11,8 C 84 % 1027,2 hPa 0,0 l/m 5,4 km/h (2 Bft) SO 1,00 h 212 W/m 9,2 C 11,7 C 12,8 km/h (3 Bft)
31.10.2015 14:00 12,0 C 83 % 1026,6 hPa 0,0 l/m 6,0 km/h (2 Bft) O-SO 0,65 h 139 W/m 9,3 C 11,7 C 14,4 km/h (3 Bft)
31.10.2015 15:00 11,4 C 86 % 1026,3 hPa 0,0 l/m 5,1 km/h (1 Bft) O-SO 0,00 h 58 W/m 9,1 C 11,3 C 12,9 km/h (3 Bft)
31.10.2015 16:00 10,7 C 89 % 1026,4 hPa 0,0 l/m 3,5 km/h (1 Bft) SO 0,00 h 19 W/m 8,8 C 10,7 C 9,1 km/h (2 Bft)
31.10.2015 17:00 9,7 C 91 % 1026,2 hPa 0,0 l/m 3,5 km/h (1 Bft) SO 0,00 h 0 W/m 8,4 C 9,7 C 8,6 km/h (2 Bft)
31.10.2015 18:00 9,6 C 92 % 1026,5 hPa 0,0 l/m 3,9 km/h (1 Bft) SO 0,00 h 0 W/m 8,3 C 9,6 C 8,8 km/h (2 Bft)
31.10.2015 19:00 8,8 C 93 % 1026,6 hPa 0,0 l/m 3,6 km/h (1 Bft) S-SO 0,00 h 0 W/m 7,8 C 8,8 C 7,1 km/h (2 Bft)
31.10.2015 20:00 8,1 C 94 % 1026,8 hPa 0,0 l/m 2,4 km/h (1 Bft) S 0,00 h 0 W/m 7,1 C 8,1 C 4,9 km/h (1 Bft)
31.10.2015 21:00 7,9 C 95 % 1027,0 hPa 0,0 l/m 3,7 km/h (1 Bft) SO 0,00 h 0 W/m 7,1 C 7,9 C 7,3 km/h (2 Bft)
31.10.2015 22:00 7,6 C 95 % 1026,9 hPa 0,0 l/m 3,4 km/h (1 Bft) S-SO 0,00 h 0 W/m 6,8 C 7,6 C 7,0 km/h (2 Bft)
31.10.2015 23:00 7,0 C 96 % 1027,1 hPa 0,0 l/m 2,3 km/h (1 Bft) SO 0,00 h 0 W/m 6,4 C 7,0 C 5,2 km/h (1 Bft)
01.11.2015 00:00 6,9 C 96 % 1027,0 hPa 0,0 l/m 3,2 km/h (1 Bft) S-SO 0,00 h 0 W/m 6,4 C 6,9 C 6,4 km/h (2 Bft)
01.11.2015 01:00 6,0 C 97 % 1027,2 hPa 0,0 l/m 2,4 km/h (1 Bft) S-SO 0,00 h 0 W/m 5,5 C 6,0 C 4,6 km/h (1 Bft)
01.11.2015 02:00 6,1 C 97 % 1027,4 hPa 0,0 l/m 3,3 km/h (1 Bft) S 0,00 h 0 W/m 5,7 C 6,1 C 5,7 km/h (2 Bft)
01.11.2015 03:00 7,1 C 97 % 1027,5 hPa 0,0 l/m 5,3 km/h (1 Bft) S-SW 0,00 h 0 W/m 6,7 C 7,1 C 8,7 km/h (2 Bft)
01.11.2015 04:00 6,6 C 97 % 1027,6 hPa 0,0 l/m 3,7 km/h (1 Bft) S 0,00 h 0 W/m 6,1 C 6,6 C 6,0 km/h (2 Bft)
01.11.2015 05:00 5,8 C 97 % 1027,3 hPa 0,0 l/m 3,2 km/h (1 Bft) S 0,00 h 0 W/m 5,4 C 5,8 C 5,2 km/h (1 Bft)
01.11.2015 06:00 5,4 C 98 % 1027,5 hPa 0,0 l/m 2,8 km/h (1 Bft) S 0,00 h 0 W/m 5,1 C 5,4 C 4,5 km/h (1 Bft)
01.11.2015 07:00 5,3 C 98 % 1027,9 hPa 0,0 l/m 3,0 km/h (1 Bft) S 0,00 h 11 W/m 5,0 C 5,3 C 5,0 km/h (1 Bft)
01.11.2015 08:00 5,9 C 98 % 1028,8 hPa 0,0 l/m 3,4 km/h (1 Bft) SW 0,00 h 31 W/m 5,6 C 5,9 C 5,8 km/h (2 Bft)
01.11.2015 09:00 7,5 C 98 % 1029,3 hPa 0,0 l/m 4,0 km/h (1 Bft) S-SW 0,00 h 69 W/m 7,2 C 7,5 C 6,7 km/h (2 Bft)
01.11.2015 10:00 8,4 C 98 % 1029,3 hPa 0,0 l/m 4,2 km/h (1 Bft) S 0,00 h 76 W/m 8,1 C 8,4 C 7,5 km/h (2 Bft)
01.11.2015 11:00 9,2 C 98 % 1029,3 hPa 0,0 l/m 2,3 km/h (1 Bft) S 0,00 h 81 W/m 8,9 C 9,2 C 4,7 km/h (1 Bft)
01.11.2015 12:00 9,0 C 98 % 1029,3 hPa 0,0 l/m 2,7 km/h (1 Bft) S-SW 0,00 h 76 W/m 8,7 C 9,0 C 5,3 km/h (1 Bft)
01.11.2015 13:00 8,8 C 98 % 1029,2 hPa 0,0 l/m 2,4 km/h (1 Bft) SW 0,00 h 68 W/m 8,5 C 8,8 C 5,3 km/h (1 Bft)
01.11.2015 14:00 9,2 C 98 % 1028,7 hPa 0,0 l/m 4,3 km/h (1 Bft) SW 0,05 h 76 W/m 8,9 C 9,2 C 7,9 km/h (2 Bft)
01.11.2015 15:00 9,7 C 96 % 1029,0 hPa 0,0 l/m 2,9 km/h (1 Bft) SW 0,55 h 77 W/m 9,1 C 9,7 C 5,8 km/h (2 Bft)
01.11.2015 16:00 8,6 C 97 % 1029,3 hPa 0,0 l/m 4,0 km/h (1 Bft) W 0,00 h 13 W/m 8,2 C 8,6 C 7,7 km/h (2 Bft)
01.11.2015 17:00 8,1 C 98 % 1029,6 hPa 0,0 l/m 2,6 km/h (1 Bft) W 0,00 h 0 W/m 7,8 C 8,1 C 5,7 km/h (2 Bft)
01.11.2015 18:00 8,5 C 99 % 1029,9 hPa 0,0 l/m 1,3 km/h (1 Bft) NW 0,00 h 0 W/m 8,4 C 8,5 C 3,5 km/h (1 Bft)
01.11.2015 19:00 8,7 C 99 % 1029,6 hPa 0,0 l/m 0,8 km/h (0 Bft) S-SO 0,00 h 0 W/m 8,5 C 8,7 C 2,2 km/h (1 Bft)
01.11.2015 20:00 8,7 C 99 % 1029,3 hPa 0,0 l/m 1,3 km/h (1 Bft) S-SO 0,00 h 0 W/m 8,5 C 8,7 C 3,4 km/h (1 Bft)
01.11.2015 21:00 8,4 C 99 % 1029,4 hPa 0,0 l/m 0,7 km/h (0 Bft) S 0,00 h 0 W/m 8,3 C 8,4 C 2,1 km/h (1 Bft)
01.11.2015 22:00 8,3 C 99 % 1029,2 hPa 0,0 l/m 0,4 km/h (0 Bft) S 0,00 h 0 W/m 8,2 C 8,3 C 1,8 km/h (1 Bft)
01.11.2015 23:00 8,3 C 99 % 1029,1 hPa 0,2 l/m 0,6 km/h (0 Bft) S 0,00 h 0 W/m 8,2 C 8,3 C 1,6 km/h (1 Bft)
Min-Datum _ 26.10.15 26.10.15 28.10.15 - 26.10.15 - - - 26.10.15 31.10.15 26.10.15
_ Min-Zeit 04:06 14:09 16:36 - 00:21 - - - 04:06 05:03 00:21
Minimum _ 4,1 C 72 % 1011,1 hPa - 0,0 km/h (0 Bft) - - - 3,7 C 4,0 C 0,0 km/h (0 Bft)
Max-Datum _ 30.10.15 30.10.15 01.11.15 26.10.15 31.10.15 - 26.10.15 26.10.15 30.10.15 30.10.15 28.10.15
_ Max-Zeit 13:54 03:51 18:18 11:09 10:48 - 10:27 12:48 11:57 13:54 08:48
Maximum _ 15,6 C 99 % 1030,0 hPa 0,2 l/m 13,6 km/h
SO (3 Bft)
- 0,10 h 345 W/m 12,4 C 15,5 C 27,4 km/h
S-SO (5 Bft)
Durchschnitt _ 8,8 C 93 % 1021,9 hPa #0,4 l/m 4,1 km/h (1 Bft) SO #18:33 h 100 W/m 7,7 C 8,6 C 9,4 km/h (2 Bft)
copyright by Holger Just